sensor_id;sensor_type;location;lat;lon;timestamp;temperature;humidity
25949;DHT22;13961;51.178;4.448;2023-02-11T00:00:11;7.40;99.90
25949;DHT22;13961;51.178;4.448;2023-02-11T00:02:38;7.40;99.90
25949;DHT22;13961;51.178;4.448;2023-02-11T00:05:04;7.40;99.90
25949;DHT22;13961;51.178;4.448;2023-02-11T00:07:34;7.40;99.90
25949;DHT22;13961;51.178;4.448;2023-02-11T00:10:00;7.60;99.90
25949;DHT22;13961;51.178;4.448;2023-02-11T00:12:27;7.60;99.90
25949;DHT22;13961;51.178;4.448;2023-02-11T00:14:54;7.60;99.90
25949;DHT22;13961;51.178;4.448;2023-02-11T00:17:19;7.60;99.90
25949;DHT22;13961;51.178;4.448;2023-02-11T00:19:49;7.70;99.90
25949;DHT22;13961;51.178;4.448;2023-02-11T00:22:15;7.60;99.90
25949;DHT22;13961;51.178;4.448;2023-02-11T00:24:40;7.80;99.90
25949;DHT22;13961;51.178;4.448;2023-02-11T00:27:06;7.60;99.90
25949;DHT22;13961;51.178;4.448;2023-02-11T00:29:31;7.60;99.90
25949;DHT22;13961;51.178;4.448;2023-02-11T00:31:57;7.70;99.90
25949;DHT22;13961;51.178;4.448;2023-02-11T00:34:23;7.80;99.90
25949;DHT22;13961;51.178;4.448;2023-02-11T00:36:49;7.60;99.90
25949;DHT22;13961;51.178;4.448;2023-02-11T00:39:15;7.60;99.90
25949;DHT22;13961;51.178;4.448;2023-02-11T00:41:40;7.60;99.90
25949;DHT22;13961;51.178;4.448;2023-02-11T00:44:07;7.60;99.90
25949;DHT22;13961;51.178;4.448;2023-02-11T00:46:33;7.70;99.90
25949;DHT22;13961;51.178;4.448;2023-02-11T00:48:58;7.60;99.90
25949;DHT22;13961;51.178;4.448;2023-02-11T00:51:26;7.50;99.90
25949;DHT22;13961;51.178;4.448;2023-02-11T00:53:52;7.40;99.90
25949;DHT22;13961;51.178;4.448;2023-02-11T00:56:19;7.40;99.90
25949;DHT22;13961;51.178;4.448;2023-02-11T00:58:45;7.40;99.90
25949;DHT22;13961;51.178;4.448;2023-02-11T01:01:12;7.40;99.90
25949;DHT22;13961;51.178;4.448;2023-02-11T01:03:39;7.30;99.90
25949;DHT22;13961;51.178;4.448;2023-02-11T01:06:06;7.20;99.90
25949;DHT22;13961;51.178;4.448;2023-02-11T01:08:33;7.30;99.90
25949;DHT22;13961;51.178;4.448;2023-02-11T01:11:05;7.20;99.90
25949;DHT22;13961;51.178;4.448;2023-02-11T01:13:33;7.20;99.90
25949;DHT22;13961;51.178;4.448;2023-02-11T01:15:59;7.30;99.90
25949;DHT22;13961;51.178;4.448;2023-02-11T01:18:25;7.40;99.90
25949;DHT22;13961;51.178;4.448;2023-02-11T01:20:52;7.30;99.90
25949;DHT22;13961;51.178;4.448;2023-02-11T01:23:18;7.40;99.90
25949;DHT22;13961;51.178;4.448;2023-02-11T01:25:44;7.40;99.90
25949;DHT22;13961;51.178;4.448;2023-02-11T01:28:22;7.50;99.90
25949;DHT22;13961;51.178;4.448;2023-02-11T01:30:49;7.50;99.90
25949;DHT22;13961;51.178;4.448;2023-02-11T01:33:14;7.50;99.90
25949;DHT22;13961;51.178;4.448;2023-02-11T01:35:40;7.40;99.90
25949;DHT22;13961;51.178;4.448;2023-02-11T01:38:07;7.40;99.90
25949;DHT22;13961;51.178;4.448;2023-02-11T01:40:33;7.40;99.90
25949;DHT22;13961;51.178;4.448;2023-02-11T01:42:59;7.60;99.90
25949;DHT22;13961;51.178;4.448;2023-02-11T01:48:14;7.70;99.90
25949;DHT22;13961;51.178;4.448;2023-02-11T01:50:42;7.80;99.90
25949;DHT22;13961;51.178;4.448;2023-02-11T01:53:10;7.80;99.90
25949;DHT22;13961;51.178;4.448;2023-02-11T01:55:55;7.70;99.90
25949;DHT22;13961;51.178;4.448;2023-02-11T01:58:41;7.60;99.90
25949;DHT22;13961;51.178;4.448;2023-02-11T02:01:12;7.60;99.90
25949;DHT22;13961;51.178;4.448;2023-02-11T02:03:42;7.70;99.90
25949;DHT22;13961;51.178;4.448;2023-02-11T02:06:09;7.70;99.90
25949;DHT22;13961;51.178;4.448;2023-02-11T02:08:52;7.80;99.90
25949;DHT22;13961;51.178;4.448;2023-02-11T02:11:22;7.70;99.90
25949;DHT22;13961;51.178;4.448;2023-02-11T02:13:48;7.60;99.90
25949;DHT22;13961;51.178;4.448;2023-02-11T02:16:16;7.80;99.90
25949;DHT22;13961;51.178;4.448;2023-02-11T02:24:51;7.60;99.90
25949;DHT22;13961;51.178;4.448;2023-02-11T02:27:40;7.50;99.90
25949;DHT22;13961;51.178;4.448;2023-02-11T02:35:47;7.60;99.90
25949;DHT22;13961;51.178;4.448;2023-02-11T02:38:34;7.50;99.90
25949;DHT22;13961;51.178;4.448;2023-02-11T02:41:15;7.40;99.90
25949;DHT22;13961;51.178;4.448;2023-02-11T02:43:47;7.50;99.90
25949;DHT22;13961;51.178;4.448;2023-02-11T02:46:22;7.70;99.90
25949;DHT22;13961;51.178;4.448;2023-02-11T02:48:49;7.60;99.90
25949;DHT22;13961;51.178;4.448;2023-02-11T02:56:26;7.90;99.90
25949;DHT22;13961;51.178;4.448;2023-02-11T02:59:02;7.90;99.90
25949;DHT22;13961;51.178;4.448;2023-02-11T03:02:01;8.10;99.90
25949;DHT22;13961;51.178;4.448;2023-02-11T03:12:44;7.90;99.90
25949;DHT22;13961;51.178;4.448;2023-02-11T03:15:11;8.20;99.90
25949;DHT22;13961;51.178;4.448;2023-02-11T03:17:40;8.00;99.90
25949;DHT22;13961;51.178;4.448;2023-02-11T03:20:10;8.10;99.90
25949;DHT22;13961;51.178;4.448;2023-02-11T03:22:48;7.90;99.90
25949;DHT22;13961;51.178;4.448;2023-02-11T03:25:16;8.00;99.90
25949;DHT22;13961;51.178;4.448;2023-02-11T03:27:56;8.00;99.90
25949;DHT22;13961;51.178;4.448;2023-02-11T03:30:29;7.90;99.90
25949;DHT22;13961;51.178;4.448;2023-02-11T03:33:16;7.80;99.90
25949;DHT22;13961;51.178;4.448;2023-02-11T03:35:52;7.90;99.90
25949;DHT22;13961;51.178;4.448;2023-02-11T03:38:27;8.00;99.90
25949;DHT22;13961;51.178;4.448;2023-02-11T03:40:55;8.10;99.90
25949;DHT22;13961;51.178;4.448;2023-02-11T03:43:47;8.30;99.90
25949;DHT22;13961;51.178;4.448;2023-02-11T03:46:13;8.20;99.90
25949;DHT22;13961;51.178;4.448;2023-02-11T03:48:43;8.20;99.90
25949;DHT22;13961;51.178;4.448;2023-02-11T03:51:14;8.40;99.90
25949;DHT22;13961;51.178;4.448;2023-02-11T03:53:42;8.40;99.90
25949;DHT22;13961;51.178;4.448;2023-02-11T03:56:12;8.20;99.90
25949;DHT22;13961;51.178;4.448;2023-02-11T03:58:41;8.00;99.90
25949;DHT22;13961;51.178;4.448;2023-02-11T04:01:08;7.90;99.90
25949;DHT22;13961;51.178;4.448;2023-02-11T04:03:35;8.10;99.90
25949;DHT22;13961;51.178;4.448;2023-02-11T04:06:01;8.10;99.90
25949;DHT22;13961;51.178;4.448;2023-02-11T04:08:26;8.10;99.90
25949;DHT22;13961;51.178;4.448;2023-02-11T04:10:52;8.10;99.90
25949;DHT22;13961;51.178;4.448;2023-02-11T04:13:17;8.20;99.90
25949;DHT22;13961;51.178;4.448;2023-02-11T04:15:44;8.30;99.90
25949;DHT22;13961;51.178;4.448;2023-02-11T04:18:10;8.40;99.90
25949;DHT22;13961;51.178;4.448;2023-02-11T04:20:36;8.50;99.90
25949;DHT22;13961;51.178;4.448;2023-02-11T04:23:03;8.50;99.90
25949;DHT22;13961;51.178;4.448;2023-02-11T04:25:29;8.40;99.90
25949;DHT22;13961;51.178;4.448;2023-02-11T04:27:55;8.60;99.90
25949;DHT22;13961;51.178;4.448;2023-02-11T04:30:20;8.40;99.90
25949;DHT22;13961;51.178;4.448;2023-02-11T04:32:46;8.40;99.90
25949;DHT22;13961;51.178;4.448;2023-02-11T04:35:13;8.50;99.90
25949;DHT22;13961;51.178;4.448;2023-02-11T04:37:39;8.30;99.90
25949;DHT22;13961;51.178;4.448;2023-02-11T04:40:05;8.10;99.90
25949;DHT22;13961;51.178;4.448;2023-02-11T04:42:30;8.20;99.90
25949;DHT22;13961;51.178;4.448;2023-02-11T04:44:56;8.20;99.90
25949;DHT22;13961;51.178;4.448;2023-02-11T04:47:22;8.30;99.90
25949;DHT22;13961;51.178;4.448;2023-02-11T04:49:47;8.00;99.90
25949;DHT22;13961;51.178;4.448;2023-02-11T04:52:13;7.90;99.90
25949;DHT22;13961;51.178;4.448;2023-02-11T04:54:40;8.00;99.90
25949;DHT22;13961;51.178;4.448;2023-02-11T04:57:06;8.10;99.90
25949;DHT22;13961;51.178;4.448;2023-02-11T04:59:31;7.90;99.90
25949;DHT22;13961;51.178;4.448;2023-02-11T05:01:57;8.10;99.90
25949;DHT22;13961;51.178;4.448;2023-02-11T05:04:24;7.80;99.90
25949;DHT22;13961;51.178;4.448;2023-02-11T05:06:49;7.80;99.90
25949;DHT22;13961;51.178;4.448;2023-02-11T05:09:15;7.90;99.90
25949;DHT22;13961;51.178;4.448;2023-02-11T05:11:42;7.80;99.90
25949;DHT22;13961;51.178;4.448;2023-02-11T05:14:08;7.90;99.90
25949;DHT22;13961;51.178;4.448;2023-02-11T05:16:34;7.80;99.90
25949;DHT22;13961;51.178;4.448;2023-02-11T05:19:00;7.80;99.90
25949;DHT22;13961;51.178;4.448;2023-02-11T05:21:27;7.80;99.90
25949;DHT22;13961;51.178;4.448;2023-02-11T05:23:53;8.00;99.90
25949;DHT22;13961;51.178;4.448;2023-02-11T05:26:18;7.90;99.90
25949;DHT22;13961;51.178;4.448;2023-02-11T05:28:45;7.80;99.90
25949;DHT22;13961;51.178;4.448;2023-02-11T05:31:11;7.90;99.90
25949;DHT22;13961;51.178;4.448;2023-02-11T05:33:41;7.70;99.90
25949;DHT22;13961;51.178;4.448;2023-02-11T05:36:10;7.80;99.90
25949;DHT22;13961;51.178;4.448;2023-02-11T05:38:36;7.70;99.90
25949;DHT22;13961;51.178;4.448;2023-02-11T05:41:03;7.70;99.90
25949;DHT22;13961;51.178;4.448;2023-02-11T05:43:29;7.80;99.90
25949;DHT22;13961;51.178;4.448;2023-02-11T05:45:55;7.90;99.90
25949;DHT22;13961;51.178;4.448;2023-02-11T05:48:22;7.90;99.90
25949;DHT22;13961;51.178;4.448;2023-02-11T05:50:48;7.90;99.90
25949;DHT22;13961;51.178;4.448;2023-02-11T05:53:14;8.00;99.90
25949;DHT22;13961;51.178;4.448;2023-02-11T05:55:41;8.10;99.90
25949;DHT22;13961;51.178;4.448;2023-02-11T05:58:07;8.00;99.90
25949;DHT22;13961;51.178;4.448;2023-02-11T06:00:33;8.10;99.90
25949;DHT22;13961;51.178;4.448;2023-02-11T06:02:59;8.10;99.90
25949;DHT22;13961;51.178;4.448;2023-02-11T06:05:25;8.10;99.90
25949;DHT22;13961;51.178;4.448;2023-02-11T06:07:51;8.40;99.90
25949;DHT22;13961;51.178;4.448;2023-02-11T06:10:17;8.30;99.90
25949;DHT22;13961;51.178;4.448;2023-02-11T06:12:42;8.20;99.90
25949;DHT22;13961;51.178;4.448;2023-02-11T06:15:09;8.40;99.90
25949;DHT22;13961;51.178;4.448;2023-02-11T06:17:36;8.40;99.90
25949;DHT22;13961;51.178;4.448;2023-02-11T06:20:03;8.20;99.90
25949;DHT22;13961;51.178;4.448;2023-02-11T06:22:30;8.30;99.90
25949;DHT22;13961;51.178;4.448;2023-02-11T06:24:55;8.40;99.90
25949;DHT22;13961;51.178;4.448;2023-02-11T06:27:21;8.30;99.90
25949;DHT22;13961;51.178;4.448;2023-02-11T06:29:47;8.40;99.90
25949;DHT22;13961;51.178;4.448;2023-02-11T06:32:13;8.40;99.90
25949;DHT22;13961;51.178;4.448;2023-02-11T06:34:39;8.40;99.90
25949;DHT22;13961;51.178;4.448;2023-02-11T06:37:05;8.30;99.90
25949;DHT22;13961;51.178;4.448;2023-02-11T06:39:31;8.40;99.90
25949;DHT22;13961;51.178;4.448;2023-02-11T06:41:57;8.50;99.90
25949;DHT22;13961;51.178;4.448;2023-02-11T06:44:41;8.40;99.90
25949;DHT22;13961;51.178;4.448;2023-02-11T06:47:07;8.40;99.90
25949;DHT22;13961;51.178;4.448;2023-02-11T06:49:32;8.30;99.90
25949;DHT22;13961;51.178;4.448;2023-02-11T06:51:58;8.30;99.90
25949;DHT22;13961;51.178;4.448;2023-02-11T06:54:24;8.50;99.90
25949;DHT22;13961;51.178;4.448;2023-02-11T06:56:50;8.30;99.90
25949;DHT22;13961;51.178;4.448;2023-02-11T06:59:17;8.50;99.90
25949;DHT22;13961;51.178;4.448;2023-02-11T07:01:45;8.40;99.90
25949;DHT22;13961;51.178;4.448;2023-02-11T07:04:11;8.50;99.90
25949;DHT22;13961;51.178;4.448;2023-02-11T07:06:37;8.60;99.90
25949;DHT22;13961;51.178;4.448;2023-02-11T07:09:06;8.70;99.90
25949;DHT22;13961;51.178;4.448;2023-02-11T07:11:33;8.70;99.90
25949;DHT22;13961;51.178;4.448;2023-02-11T07:14:05;8.60;99.90
25949;DHT22;13961;51.178;4.448;2023-02-11T07:16:31;8.60;99.90
25949;DHT22;13961;51.178;4.448;2023-02-11T07:18:57;8.70;99.90
25949;DHT22;13961;51.178;4.448;2023-02-11T07:21:23;8.50;99.90
25949;DHT22;13961;51.178;4.448;2023-02-11T07:23:49;8.30;99.90
25949;DHT22;13961;51.178;4.448;2023-02-11T07:26:19;8.40;99.90
25949;DHT22;13961;51.178;4.448;2023-02-11T07:28:49;8.50;99.90
25949;DHT22;13961;51.178;4.448;2023-02-11T07:31:21;8.60;99.90
25949;DHT22;13961;51.178;4.448;2023-02-11T07:33:46;8.60;99.90
25949;DHT22;13961;51.178;4.448;2023-02-11T07:36:14;8.70;99.90
25949;DHT22;13961;51.178;4.448;2023-02-11T07:38:41;8.70;99.90
25949;DHT22;13961;51.178;4.448;2023-02-11T07:41:09;8.70;99.90
25949;DHT22;13961;51.178;4.448;2023-02-11T07:43:36;8.70;99.90
25949;DHT22;13961;51.178;4.448;2023-02-11T07:46:03;8.70;99.90
25949;DHT22;13961;51.178;4.448;2023-02-11T07:48:29;8.50;99.90
25949;DHT22;13961;51.178;4.448;2023-02-11T07:50:55;8.60;99.90
25949;DHT22;13961;51.178;4.448;2023-02-11T07:53:21;8.50;99.90
25949;DHT22;13961;51.178;4.448;2023-02-11T07:55:46;8.60;99.90
25949;DHT22;13961;51.178;4.448;2023-02-11T07:58:12;8.80;99.90
25949;DHT22;13961;51.178;4.448;2023-02-11T08:00:38;9.10;99.90
25949;DHT22;13961;51.178;4.448;2023-02-11T08:03:03;9.10;99.90
25949;DHT22;13961;51.178;4.448;2023-02-11T08:05:30;8.80;99.90
25949;DHT22;13961;51.178;4.448;2023-02-11T08:07:56;8.40;99.90
25949;DHT22;13961;51.178;4.448;2023-02-11T08:10:23;8.60;99.90
25949;DHT22;13961;51.178;4.448;2023-02-11T08:12:48;8.60;99.90
25949;DHT22;13961;51.178;4.448;2023-02-11T08:15:14;8.80;99.90
25949;DHT22;13961;51.178;4.448;2023-02-11T08:17:40;8.60;99.90
25949;DHT22;13961;51.178;4.448;2023-02-11T08:20:06;8.80;99.90
25949;DHT22;13961;51.178;4.448;2023-02-11T08:22:33;8.90;99.90
25949;DHT22;13961;51.178;4.448;2023-02-11T08:24:59;8.80;99.90
25949;DHT22;13961;51.178;4.448;2023-02-11T08:27:25;9.00;99.90
25949;DHT22;13961;51.178;4.448;2023-02-11T08:29:52;9.10;99.90
25949;DHT22;13961;51.178;4.448;2023-02-11T08:32:18;8.90;99.90
25949;DHT22;13961;51.178;4.448;2023-02-11T08:34:43;9.00;99.90
25949;DHT22;13961;51.178;4.448;2023-02-11T08:37:09;8.80;99.90
25949;DHT22;13961;51.178;4.448;2023-02-11T08:39:35;9.00;99.90
25949;DHT22;13961;51.178;4.448;2023-02-11T08:42:01;8.80;99.90
25949;DHT22;13961;51.178;4.448;2023-02-11T08:44:27;8.90;99.90
25949;DHT22;13961;51.178;4.448;2023-02-11T08:46:54;9.10;99.90
25949;DHT22;13961;51.178;4.448;2023-02-11T08:49:20;9.10;99.90
25949;DHT22;13961;51.178;4.448;2023-02-11T08:51:47;8.90;99.90
25949;DHT22;13961;51.178;4.448;2023-02-11T08:54:14;8.60;99.90
25949;DHT22;13961;51.178;4.448;2023-02-11T08:56:40;8.90;99.90
25949;DHT22;13961;51.178;4.448;2023-02-11T08:59:07;8.80;99.90
25949;DHT22;13961;51.178;4.448;2023-02-11T09:01:34;9.20;99.90
25949;DHT22;13961;51.178;4.448;2023-02-11T09:04:01;9.10;99.90
25949;DHT22;13961;51.178;4.448;2023-02-11T09:06:27;8.80;99.90
25949;DHT22;13961;51.178;4.448;2023-02-11T09:08:55;8.70;99.90
25949;DHT22;13961;51.178;4.448;2023-02-11T09:11:28;8.80;99.90
25949;DHT22;13961;51.178;4.448;2023-02-11T09:13:54;8.50;99.90
25949;DHT22;13961;51.178;4.448;2023-02-11T09:16:22;8.60;99.90
25949;DHT22;13961;51.178;4.448;2023-02-11T09:18:48;8.60;99.90
25949;DHT22;13961;51.178;4.448;2023-02-11T09:21:15;8.80;99.90
25949;DHT22;13961;51.178;4.448;2023-02-11T09:23:41;9.00;99.90
25949;DHT22;13961;51.178;4.448;2023-02-11T09:26:15;9.10;99.90
25949;DHT22;13961;51.178;4.448;2023-02-11T09:28:41;9.10;99.90
25949;DHT22;13961;51.178;4.448;2023-02-11T09:31:11;9.40;99.90
25949;DHT22;13961;51.178;4.448;2023-02-11T09:33:39;9.20;99.90
25949;DHT22;13961;51.178;4.448;2023-02-11T09:36:07;9.40;99.90
25949;DHT22;13961;51.178;4.448;2023-02-11T09:38:33;9.40;99.90
25949;DHT22;13961;51.178;4.448;2023-02-11T09:41:00;9.50;99.90
25949;DHT22;13961;51.178;4.448;2023-02-11T09:43:43;9.50;99.90
25949;DHT22;13961;51.178;4.448;2023-02-11T09:46:15;9.50;99.90
25949;DHT22;13961;51.178;4.448;2023-02-11T09:48:42;9.60;99.90
25949;DHT22;13961;51.178;4.448;2023-02-11T09:51:19;9.70;99.90
25949;DHT22;13961;51.178;4.448;2023-02-11T09:53:50;9.60;99.90
25949;DHT22;13961;51.178;4.448;2023-02-11T09:56:27;9.70;99.90
25949;DHT22;13961;51.178;4.448;2023-02-11T09:58:53;9.80;99.90
25949;DHT22;13961;51.178;4.448;2023-02-11T10:05:05;9.80;99.90
25949;DHT22;13961;51.178;4.448;2023-02-11T10:07:47;9.80;99.90
25949;DHT22;13961;51.178;4.448;2023-02-11T10:16:33;9.70;99.90
25949;DHT22;13961;51.178;4.448;2023-02-11T10:19:31;9.70;99.90
25949;DHT22;13961;51.178;4.448;2023-02-11T10:24:54;10.00;99.90
25949;DHT22;13961;51.178;4.448;2023-02-11T10:27:32;10.00;99.90
25949;DHT22;13961;51.178;4.448;2023-02-11T10:30:08;10.00;99.90
25949;DHT22;13961;51.178;4.448;2023-02-11T10:33:03;10.10;99.90
25949;DHT22;13961;51.178;4.448;2023-02-11T10:35:37;10.10;99.90
25949;DHT22;13961;51.178;4.448;2023-02-11T10:38:03;10.20;99.90
25949;DHT22;13961;51.178;4.448;2023-02-11T10:40:30;10.10;99.90
25949;DHT22;13961;51.178;4.448;2023-02-11T10:43:05;10.20;99.90
25949;DHT22;13961;51.178;4.448;2023-02-11T10:47:59;10.00;99.90
25949;DHT22;13961;51.178;4.448;2023-02-11T10:50:28;9.90;99.90
25949;DHT22;13961;51.178;4.448;2023-02-11T10:53:17;9.90;99.90
25949;DHT22;13961;51.178;4.448;2023-02-11T10:55:51;9.80;99.90
25949;DHT22;13961;51.178;4.448;2023-02-11T10:58:24;10.00;99.90
25949;DHT22;13961;51.178;4.448;2023-02-11T11:00:53;10.00;99.90
25949;DHT22;13961;51.178;4.448;2023-02-11T11:03:22;10.00;99.90
25949;DHT22;13961;51.178;4.448;2023-02-11T11:06:03;10.10;99.90
25949;DHT22;13961;51.178;4.448;2023-02-11T11:08:45;10.20;99.90
25949;DHT22;13961;51.178;4.448;2023-02-11T11:11:14;10.30;99.90
25949;DHT22;13961;51.178;4.448;2023-02-11T11:16:30;10.30;99.90
25949;DHT22;13961;51.178;4.448;2023-02-11T11:21:43;10.50;99.90
25949;DHT22;13961;51.178;4.448;2023-02-11T11:24:32;10.40;99.90
25949;DHT22;13961;51.178;4.448;2023-02-11T11:27:02;10.50;99.90
25949;DHT22;13961;51.178;4.448;2023-02-11T11:29:32;10.40;99.90
25949;DHT22;13961;51.178;4.448;2023-02-11T11:32:17;10.40;99.90
25949;DHT22;13961;51.178;4.448;2023-02-11T11:34:49;10.50;99.90
25949;DHT22;13961;51.178;4.448;2023-02-11T11:37:19;10.50;99.90
25949;DHT22;13961;51.178;4.448;2023-02-11T11:42:37;10.60;99.90
25949;DHT22;13961;51.178;4.448;2023-02-11T11:45:24;10.80;99.90
25949;DHT22;13961;51.178;4.448;2023-02-11T11:50:33;11.10;99.90
25949;DHT22;13961;51.178;4.448;2023-02-11T11:53:19;11.00;99.90
25949;DHT22;13961;51.178;4.448;2023-02-11T11:56:01;10.90;99.90
25949;DHT22;13961;51.178;4.448;2023-02-11T11:58:29;10.70;99.90
25949;DHT22;13961;51.178;4.448;2023-02-11T12:03:59;10.40;99.90
25949;DHT22;13961;51.178;4.448;2023-02-11T12:09:25;10.70;99.90
25949;DHT22;13961;51.178;4.448;2023-02-11T12:15:22;11.00;99.90
25949;DHT22;13961;51.178;4.448;2023-02-11T12:18:27;10.70;99.90
25949;DHT22;13961;51.178;4.448;2023-02-11T12:23:43;10.60;99.90
25949;DHT22;13961;51.178;4.448;2023-02-11T12:26:23;10.50;99.90
25949;DHT22;13961;51.178;4.448;2023-02-11T12:29:21;10.70;99.90
25949;DHT22;13961;51.178;4.448;2023-02-11T12:34:50;11.10;99.90
25949;DHT22;13961;51.178;4.448;2023-02-11T12:48:44;11.10;99.90
25949;DHT22;13961;51.178;4.448;2023-02-11T12:56:58;11.30;99.90
25949;DHT22;13961;51.178;4.448;2023-02-11T12:59:40;10.90;99.90
25949;DHT22;13961;51.178;4.448;2023-02-11T13:02:23;11.00;99.90
25949;DHT22;13961;51.178;4.448;2023-02-11T13:05:00;11.00;99.90
25949;DHT22;13961;51.178;4.448;2023-02-11T13:07:38;11.10;99.90
25949;DHT22;13961;51.178;4.448;2023-02-11T13:12:51;11.20;99.90
25949;DHT22;13961;51.178;4.448;2023-02-11T13:15:36;11.10;99.90
25949;DHT22;13961;51.178;4.448;2023-02-11T13:18:29;11.10;99.90
25949;DHT22;13961;51.178;4.448;2023-02-11T13:21:20;11.00;99.90
25949;DHT22;13961;51.178;4.448;2023-02-11T13:24:18;11.10;99.90
25949;DHT22;13961;51.178;4.448;2023-02-11T13:32:11;11.00;99.90
25949;DHT22;13961;51.178;4.448;2023-02-11T13:37:24;11.30;99.90
25949;DHT22;13961;51.178;4.448;2023-02-11T13:40:21;11.30;99.90
25949;DHT22;13961;51.178;4.448;2023-02-11T13:42:53;11.20;99.90
25949;DHT22;13961;51.178;4.448;2023-02-11T13:45:47;11.30;99.90
25949;DHT22;13961;51.178;4.448;2023-02-11T13:48:38;11.20;99.90
25949;DHT22;13961;51.178;4.448;2023-02-11T13:51:11;11.30;99.90
25949;DHT22;13961;51.178;4.448;2023-02-11T13:53:48;11.50;99.90
25949;DHT22;13961;51.178;4.448;2023-02-11T13:56:35;11.40;99.90
25949;DHT22;13961;51.178;4.448;2023-02-11T13:59:05;11.50;99.90
25949;DHT22;13961;51.178;4.448;2023-02-11T14:04:30;11.10;99.90
25949;DHT22;13961;51.178;4.448;2023-02-11T14:16:13;11.40;99.90
25949;DHT22;13961;51.178;4.448;2023-02-11T14:26:58;11.50;99.90
25949;DHT22;13961;51.178;4.448;2023-02-11T14:37:49;10.90;99.90
25949;DHT22;13961;51.178;4.448;2023-02-11T14:40:33;10.80;99.90
25949;DHT22;13961;51.178;4.448;2023-02-11T14:43:12;10.80;99.90
25949;DHT22;13961;51.178;4.448;2023-02-11T14:45:52;11.00;99.90
25949;DHT22;13961;51.178;4.448;2023-02-11T14:48:21;11.20;99.90
25949;DHT22;13961;51.178;4.448;2023-02-11T14:50:51;11.20;99.90
25949;DHT22;13961;51.178;4.448;2023-02-11T14:53:24;11.20;99.90
25949;DHT22;13961;51.178;4.448;2023-02-11T14:55:52;11.30;99.90
25949;DHT22;13961;51.178;4.448;2023-02-11T14:58:21;11.10;99.90
25949;DHT22;13961;51.178;4.448;2023-02-11T15:03:37;11.40;99.90
25949;DHT22;13961;51.178;4.448;2023-02-11T15:06:25;11.40;99.90
25949;DHT22;13961;51.178;4.448;2023-02-11T15:09:03;11.40;99.90
25949;DHT22;13961;51.178;4.448;2023-02-11T15:11:40;11.40;99.90
25949;DHT22;13961;51.178;4.448;2023-02-11T15:14:24;11.30;99.90
25949;DHT22;13961;51.178;4.448;2023-02-11T15:16:52;11.20;99.90
25949;DHT22;13961;51.178;4.448;2023-02-11T15:19:24;11.10;99.90
25949;DHT22;13961;51.178;4.448;2023-02-11T15:21:50;11.10;99.90
25949;DHT22;13961;51.178;4.448;2023-02-11T15:24:21;11.10;99.90
25949;DHT22;13961;51.178;4.448;2023-02-11T15:27:14;11.00;99.90
25949;DHT22;13961;51.178;4.448;2023-02-11T15:29:44;11.10;99.90
25949;DHT22;13961;51.178;4.448;2023-02-11T15:32:18;11.20;99.90
25949;DHT22;13961;51.178;4.448;2023-02-11T15:34:48;11.30;99.90
25949;DHT22;13961;51.178;4.448;2023-02-11T15:37:25;11.40;99.90
25949;DHT22;13961;51.178;4.448;2023-02-11T15:39:52;11.10;99.90
25949;DHT22;13961;51.178;4.448;2023-02-11T15:42:28;10.80;99.90
25949;DHT22;13961;51.178;4.448;2023-02-11T15:50:39;11.00;99.90
25949;DHT22;13961;51.178;4.448;2023-02-11T15:53:28;11.10;99.90
25949;DHT22;13961;51.178;4.448;2023-02-11T15:56:17;11.00;99.90
25949;DHT22;13961;51.178;4.448;2023-02-11T15:58:46;11.10;99.90
25949;DHT22;13961;51.178;4.448;2023-02-11T16:01:13;11.10;99.90
25949;DHT22;13961;51.178;4.448;2023-02-11T16:03:41;11.10;99.90
25949;DHT22;13961;51.178;4.448;2023-02-11T16:09:26;11.00;99.90
25949;DHT22;13961;51.178;4.448;2023-02-11T16:19:32;11.20;99.90
25949;DHT22;13961;51.178;4.448;2023-02-11T16:22:05;11.20;99.90
25949;DHT22;13961;51.178;4.448;2023-02-11T16:24:37;11.30;99.90
25949;DHT22;13961;51.178;4.448;2023-02-11T16:27:07;11.40;99.90
25949;DHT22;13961;51.178;4.448;2023-02-11T16:29:44;11.50;99.90
25949;DHT22;13961;51.178;4.448;2023-02-11T16:32:23;11.30;99.90
25949;DHT22;13961;51.178;4.448;2023-02-11T16:34:49;11.20;99.90
25949;DHT22;13961;51.178;4.448;2023-02-11T16:37:15;11.20;99.90
25949;DHT22;13961;51.178;4.448;2023-02-11T16:39:41;11.20;99.90
25949;DHT22;13961;51.178;4.448;2023-02-11T16:42:08;11.20;99.90
25949;DHT22;13961;51.178;4.448;2023-02-11T16:44:34;11.30;99.90
25949;DHT22;13961;51.178;4.448;2023-02-11T16:47:01;11.10;99.90
25949;DHT22;13961;51.178;4.448;2023-02-11T16:49:36;11.00;99.90
25949;DHT22;13961;51.178;4.448;2023-02-11T16:52:07;11.20;99.90
25949;DHT22;13961;51.178;4.448;2023-02-11T16:54:33;11.20;99.90
25949;DHT22;13961;51.178;4.448;2023-02-11T16:57:01;11.30;99.90
25949;DHT22;13961;51.178;4.448;2023-02-11T16:59:27;11.30;99.90
25949;DHT22;13961;51.178;4.448;2023-02-11T17:01:53;11.30;99.90
25949;DHT22;13961;51.178;4.448;2023-02-11T17:04:29;11.00;99.90
25949;DHT22;13961;51.178;4.448;2023-02-11T17:06:58;10.90;99.90
25949;DHT22;13961;51.178;4.448;2023-02-11T17:09:26;10.90;99.90
25949;DHT22;13961;51.178;4.448;2023-02-11T17:11:52;10.90;99.90
25949;DHT22;13961;51.178;4.448;2023-02-11T17:14:19;10.90;99.90
25949;DHT22;13961;51.178;4.448;2023-02-11T17:16:45;10.90;99.90
25949;DHT22;13961;51.178;4.448;2023-02-11T17:19:15;11.00;99.90
25949;DHT22;13961;51.178;4.448;2023-02-11T17:21:42;11.00;99.90
25949;DHT22;13961;51.178;4.448;2023-02-11T17:24:09;11.00;99.90
25949;DHT22;13961;51.178;4.448;2023-02-11T17:26:38;11.10;99.90
25949;DHT22;13961;51.178;4.448;2023-02-11T17:29:06;11.00;99.90
25949;DHT22;13961;51.178;4.448;2023-02-11T17:31:32;11.00;99.90
25949;DHT22;13961;51.178;4.448;2023-02-11T17:33:59;11.00;99.90
25949;DHT22;13961;51.178;4.448;2023-02-11T17:36:26;11.00;99.90
25949;DHT22;13961;51.178;4.448;2023-02-11T17:38:53;11.00;99.90
25949;DHT22;13961;51.178;4.448;2023-02-11T17:41:19;11.00;99.90
25949;DHT22;13961;51.178;4.448;2023-02-11T17:43:45;11.00;99.90
25949;DHT22;13961;51.178;4.448;2023-02-11T17:46:11;10.70;99.90
25949;DHT22;13961;51.178;4.448;2023-02-11T17:48:37;10.80;99.90
25949;DHT22;13961;51.178;4.448;2023-02-11T17:51:04;10.80;99.90
25949;DHT22;13961;51.178;4.448;2023-02-11T17:53:31;10.60;99.90
25949;DHT22;13961;51.178;4.448;2023-02-11T17:55:56;10.40;99.90
25949;DHT22;13961;51.178;4.448;2023-02-11T17:58:22;10.70;99.90
25949;DHT22;13961;51.178;4.448;2023-02-11T18:00:48;10.60;99.90
25949;DHT22;13961;51.178;4.448;2023-02-11T18:03:15;10.60;99.90
25949;DHT22;13961;51.178;4.448;2023-02-11T18:05:41;10.30;99.90
25949;DHT22;13961;51.178;4.448;2023-02-11T18:08:07;10.10;99.90
25949;DHT22;13961;51.178;4.448;2023-02-11T18:10:32;10.30;99.90
25949;DHT22;13961;51.178;4.448;2023-02-11T18:12:59;10.40;99.90
25949;DHT22;13961;51.178;4.448;2023-02-11T18:15:25;10.50;99.90
25949;DHT22;13961;51.178;4.448;2023-02-11T18:17:51;10.60;99.90
25949;DHT22;13961;51.178;4.448;2023-02-11T18:20:16;10.70;99.90
25949;DHT22;13961;51.178;4.448;2023-02-11T18:22:43;10.80;99.90